Aktualne dane pomiarowe

Uwaga, wersja testowa! Automatyczne pobieranie danych za pomocą narzędzi lub skryptów to umożliwiających jest zabronione.

Dane meteo z obszaru Polski uzyskane na podstawie depesz SYNOP pobieranych co godzinę z NWS. Najedź myszką na symbol przedstawiony w tabeli, aby uzyskać informacje co do jego znaczenia. Prosimy pamiętać, że to testowa wersja strony, która jeszcze nie jest ukończona. Stworzono również jest krótki FAQ dotyczący korzystania z tej podstrony Anomalie temperatury w chwili obecnej odniesione są do okresu referencyjnego 1951-2016. Okres ten będzie później zmieniony na 1981-2010. Kliknij ikonę aby pobrać plik CSV. Kliknij ikonę aby wygenerować mapę synoptyczną dla danego terminu.

Wybierz Datę:    

        

Bielsko-Biała (12600)

Dane terminowe dla wybranej stacji. Kliknij datę, aby otrzymać dane z tego terminu dla wszystkich stacji.

TemperaturaZachmurzenieWiatrCiśnienieOpadyPogoda
 Data t td wb tx tn tg rh  Nt Nl Cl Cm Ch ws wd g1 g2 wx mslp ppp ch 24h 12h t ww ww w1 w2  
2019-06-19 23:00:00 19.6 15.0 16.5--- 7520.0wxwxwxwxwx2wx---1011.6 965.5 -0.6---------
2019-06-19 22:00:00 19.7 15.3 16.7--- 7630.0wxwxwxwx2wx---1011.4 965.3 -0.2---wx---
2019-06-19 21:00:00 21.3 16.0 17.7--- 7225.0wxwxwxwxwx2wx--21011.5 965.7 0.2---------
2019-06-19 20:00:00 21.1 15.9 17.6--- 7220.0wxwxwxwx3wx--31012.0 966.1 0.7---------
2019-06-19 19:00:00 21.9 15.0 17.4--- 6525.0wxwxwxwxwx3wx--31011.2 965.5 -0.1---------
2019-06-19 18:00:00 22.9 16.4 18.6 26.7 20.3- 6730.0wxwxwxwxwx2wx--21011.1 965.5 -0.3- 10.012wx-w1--
2019-06-19 17:00:00 24.5 16.2 19.0--- 6030.0wxwxwxwxwx2wx--21010.7 965.4 -0.7---------
2019-06-19 16:00:00 26.0 13.8 18.4--- 4730.0wxwxwxwxwx1wx--11010.7 965.6 -1.1---------
2019-06-19 15:00:00 26.3 15.0 19.1--- 5040.0wxwxwxwxwx3wx---1010.9 965.8 -1.4---wx-w1--
2019-06-19 14:00:00 26.1 15.8 19.4--- 5340.0wxwxwxwxwx3wx--31011.2 966.1 -1.2---------
2019-06-19 13:00:00 24.2 17.4 19.6--- 6630.0wxwxwxwxwx2wx--21012.1 966.7 -1.3---wx---
2019-06-19 12:00:00 25.5 14.3 18.4--- 5020.0wxwxwxwxwx1wx--11012.4 967.2 -0.7- 10.06wx-w1--
2019-06-19 11:00:00 23.6 17.6 19.5--- 6930.0wxwxwxwxwx1wx--11012.9 967.3 -0.9---------
2019-06-19 10:00:00 23.4 16.9 19.0--- 6730.0wxwxwxwxwx3wx--31013.6 968.0 -0.4---wx-w1--
2019-06-19 09:00:00 25.3 15.0 18.7--- 5330.0wxwxwxwx2wx--21013.2 967.9 -0.6---------
2019-06-19 08:00:00 25.0 15.0 18.6--- 5430.0wxwxwxwxwx2wx---1013.6 968.2 -0.3---------
2019-06-19 07:00:00 24.3 15.2 18.4--- 5730.0wxwxwxwxwx2wx--21013.9 968.4 0.0---------
2019-06-19 06:00:00 21.3 16.5 18.0 22.4 17.5 16 7430.0wxwxwxwxwx1wx--11014.5 968.5 0.1--12----- 14.2
2019-06-19 05:00:00 20.4 16.0 17.4--- 7620.0wxwxwxwxwx1wx--11014.6 968.5 0.2---------
2019-06-19 04:00:00 18.6 15.7 16.6--- 8320.0wxwxwxwxwx1wx--11014.8 968.4 -0.2---------
2019-06-19 03:00:00 18.2 15.1 16.1--- 8220.0wx-wxwx3wx---1014.9 968.4 -0.5---------
2019-06-19 02:00:00 18.0 14.9 15.9--- 8220.0wx-wx1wx--11014.8 968.3 -1.0---------
2019-06-19 01:00:00 18.5 15.4 16.4--- 8220.0wx-wxwx2wx--21015.0 968.6 -0.8---------
2019-06-19 00:00:00 19.1 15.8 16.8--- 8115.0wxwxwxwx3wx--31015.2 968.9 -0.8--6wx-w1--
2019-06-18 23:00:00 19.7 15.8 17.0--- 7820.0wxwxwxwx2wx--21015.6 969.3 -0.5---------
2019-06-18 22:00:00 20.3 15.7 17.2--- 7520.0wxwxwx2wx---1015.6 969.4 -0.6---wx---
2019-06-18 21:00:00 20.7 15.7 17.3--- 7320.0wxwxwx4wx--41015.8 969.7 0.0---------
2019-06-18 20:00:00 19.9 15.5 16.9--- 7620.0wx-wxwx3wx--31016.1 969.8 0.0---------
2019-06-18 19:00:00 21.2 15.5 17.4--- 7020.0wxwxwxwxwx3wx--31016.1 970.0 0.1---------
2019-06-18 18:00:00 22.4 15.3 17.7 24.4 19.1- 6430.0wxwxwxwx3wx-1031015.6 969.7 -0.5- 0.012------
2019-06-18 17:00:00 23.1 14.1 17.4--- 5730.0wxwxwxwxwx5wx---1015.5 969.8 -0.9---------
2019-06-18 16:00:00 23.5 14.2 17.6--- 5630.0wxwxwxwxwx4wx--41015.6 969.9 -1.2---------
2019-06-18 15:00:00 23.9 14.3 17.8--- 5530.0wxwxwxwx4wx---1015.8 970.2 -1.4---------
2019-06-18 14:00:00 24.2 14.6 18.1--- 5530.0wxwxwxwxwx5wx-1051016.3 970.7 -1.2---------
2019-06-18 13:00:00 24.1 13.9 17.7--- 5330.0wxwxwxwx4wx9941016.8 971.1 -1.0---------
2019-06-18 12:00:00 23.2 13.7 17.2--- 5530.0wxwxwxwx6wx--61017.4 971.6 -0.7- 0.06------
2019-06-18 11:00:00 23.0 13.7 17.1--- 5640.0wxwxwxwx4wx--41017.8 971.9 -0.7---------
2019-06-18 10:00:00 22.8 13.6 17.0--- 5630.0wxwxwxwx5wx--51018.0 972.1 -0.9---------
2019-06-18 09:00:00 21.8 13.7 16.6--- 6040.0wxwxwxwx5wx--51018.4 972.3 -0.9---------
2019-06-18 08:00:00 21.2 13.1 16.1--- 6040.0wxwxwxwx3wx--31018.8 972.6 -0.5---------
2019-06-18 07:00:00 20.3 13.5 15.9--- 6540.0wxwxwxwx2wx---1019.3 973.0 0.2---------
2019-06-18 06:00:00 19.1 13.1 15.2 20.3 13.8 13 6830.0wxwxwxwx2wx--21019.8 973.2 0.3- 0.012----- 10.5
2019-06-18 05:00:00 17.1 12.4 14.0--- 7440.0wx-wx2wx--21020.0 973.1 0.2---------
2019-06-18 04:00:00 15.1 12.0 13.0--- 8240.0wxwxwxwx2wx--21020.0 972.8 -0.3---------
2019-06-18 03:00:00 14.1 11.8 12.5--- 8640.0wxwxwxwxwx3wx--31020.3 972.9 -0.5---------
2019-06-18 02:00:00 14.1 11.8 12.5--- 8630.0wx-wx3wx---1020.3 972.9 -0.7---------
2019-06-18 01:00:00 14.0 11.7 12.4--- 8630.0wx-wx2wx---1020.5 973.1 -0.5---------
2019-06-18 00:00:00 14.3 11.8 12.6--- 8530.0wx-wx2wx--21020.8 973.4 -0.2- 0.06------
1.4 ms

 

Print Friendly, PDF & Email